Time;durP1;ratioP1;P1;durP2;ratioP2;P2;SDS_P1;SDS_P2;PMS_P1;PMS_P2;Temp;Humidity;BMP_temperature;BMP_pressure;BME280_temperature;BME280_humidity;BME280_pressure;Samples;Min_cycle;Max_cycle;Signal;HPM_P1;HPM_P2
2021/05/11 00:00:21;;;;;;;9.03;3.87;;;;;;;15.40;52.33;95144.63;5093519;28;20482;-75
2021/05/11 00:02:48;;;;;;;4.37;3.80;;;;;;;15.35;53.03;95146.06;5093544;28;20818;-75
2021/05/11 00:05:15;;;;;;;4.17;3.43;;;;;;;15.38;52.39;95141.28;5093604;28;20441;-75
2021/05/11 00:07:42;;;;;;;6.13;3.63;;;;;;;15.37;52.47;95144.94;5093882;28;20450;-75
2021/05/11 00:10:09;;;;;;;3.40;3.07;;;;;;;15.39;52.59;95142.97;5094391;28;20842;-75
2021/05/11 00:12:35;;;;;;;3.87;3.53;;;;;;;15.40;52.63;95141.97;5058646;28;20443;-74
2021/05/11 00:15:03;;;;;;;5.17;3.63;;;;;;;15.39;52.30;95140.31;5094417;28;20522;-74
2021/05/11 00:17:29;;;;;;;3.57;3.30;;;;;;;15.44;53.45;95140.69;5093995;28;20466;-74
2021/05/11 00:19:58;;;;;;;6.47;3.40;;;;;;;15.42;52.97;95137.34;5094047;28;20484;-75
2021/05/11 00:22:25;;;;;;;4.00;3.60;;;;;;;15.45;53.22;95144.16;5093908;28;20444;-74
2021/05/11 00:24:51;;;;;;;7.23;3.50;;;;;;;15.49;53.16;95134.91;5094036;28;20455;-75
2021/05/11 00:27:17;;;;;;;4.03;3.73;;;;;;;15.55;52.76;95142.22;5093787;28;20860;-75
2021/05/11 00:29:43;;;;;;;6.53;3.40;;;;;;;15.57;53.51;95140.25;5093806;28;20455;-75
2021/05/11 00:32:10;;;;;;;4.27;3.90;;;;;;;15.55;54.59;95141.41;5093674;28;20439;-74
2021/05/11 00:34:36;;;;;;;4.30;3.90;;;;;;;15.47;54.19;95142.19;5093723;28;20508;-74
2021/05/11 00:37:03;;;;;;;5.20;3.83;;;;;;;15.26;54.34;95142.50;5093379;28;20945;-75
2021/05/11 00:39:30;;;;;;;4.80;3.53;;;;;;;15.15;54.59;95142.75;5093464;28;21229;-75
2021/05/11 00:41:56;;;;;;;4.30;3.97;;;;;;;14.93;55.82;95137.91;5093857;28;20504;-75
2021/05/11 00:44:24;;;;;;;4.30;3.90;;;;;;;14.91;55.71;95142.50;5093605;28;20795;-74
2021/05/11 00:46:56;;;;;;;12.70;3.90;;;;;;;14.79;56.58;95136.63;5093677;28;20904;-74
2021/05/11 00:49:23;;;;;;;9.00;4.07;;;;;;;14.76;56.46;95135.13;5093419;28;20485;-74
2021/05/11 00:51:49;;;;;;;4.57;3.73;;;;;;;14.66;58.39;95138.78;5093300;28;20492;-75
2021/05/11 00:54:17;;;;;;;4.20;3.80;;;;;;;14.66;57.64;95130.84;5093680;28;20469;-74
2021/05/11 00:56:44;;;;;;;5.00;4.50;;;;;;;14.70;57.67;95137.50;5093586;28;20448;-74
2021/05/11 00:59:17;;;;;;;11.33;4.17;;;;;;;14.68;57.89;95140.28;5093195;28;20481;-75
2021/05/11 01:01:43;;;;;;;4.30;4.00;;;;;;;14.57;57.03;95136.06;5093672;28;20451;-74
2021/05/11 01:04:09;;;;;;;4.60;4.20;;;;;;;14.32;58.95;95127.97;5093522;28;20442;-74
2021/05/11 01:06:36;;;;;;;5.00;4.47;;;;;;;14.27;59.20;95112.56;5093772;28;20449;-74
2021/05/11 01:09:03;;;;;;;4.50;3.60;;;;;;;14.33;59.09;95132.28;5093190;28;20439;-74
2021/05/11 01:11:31;;;;;;;5.50;3.60;;;;;;;14.19;58.71;95129.16;5093315;28;20448;-74
2021/05/11 01:13:57;;;;;;;5.70;3.63;;;;;;;14.25;59.71;95120.66;5074335;28;20449;-75
2021/05/11 01:16:26;;;;;;;5.13;4.63;;;;;;;14.34;59.49;95120.72;5093064;28;21239;-75
2021/05/11 01:18:54;;;;;;;18.63;5.20;;;;;;;14.32;58.03;95117.41;5093060;28;20488;-75
2021/05/11 01:21:30;;;;;;;5.03;3.80;;;;;;;14.41;58.74;95121.78;5093286;28;20448;-74
2021/05/11 01:24:04;;;;;;;4.90;4.50;;;;;;;14.44;58.27;95113.59;5093272;28;20472;-74
2021/05/11 01:26:34;;;;;;;4.77;3.67;;;;;;;14.44;57.45;95119.72;5093069;28;20443;-75
2021/05/11 01:29:12;;;;;;;4.10;3.73;;;;;;;14.49;58.09;95109.56;5074861;28;20532;-74
2021/05/11 01:45:48;;;;;;;11.90;4.63;;;;;;;14.61;57.32;95104.06;5092898;28;20432;-74
2021/05/11 01:48:23;;;;;;;4.40;3.67;;;;;;;14.60;58.10;95102.41;5092962;28;20468;-74
2021/05/11 01:50:56;;;;;;;4.03;3.73;;;;;;;14.57;58.44;95108.81;5059206;28;20513;-74
2021/05/11 01:53:41;;;;;;;4.13;3.73;;;;;;;14.50;58.29;95099.84;5092653;28;20455;-74
2021/05/11 01:59:18;;;;;;;4.40;4.10;;;;;;;13.98;59.97;95106.59;5092412;28;21074;-75
2021/05/11 02:10:32;;;;;;;13.20;4.80;;;;;;;14.18;59.32;95095.00;5050111;28;20968;-74
2021/05/11 02:23:54;;;;;;;4.47;3.60;;;;;;;14.05;60.02;95086.56;5033950;28;20469;-75
2021/05/11 02:26:21;;;;;;;3.93;3.60;;;;;;;14.04;60.25;95085.75;5033918;28;20478;-74
2021/05/11 02:28:48;;;;;;;4.10;3.50;;;;;;;14.10;60.03;95090.44;5033526;28;20506;-75
2021/05/11 02:31:15;;;;;;;3.80;3.40;;;;;;;14.14;59.49;95086.50;5034191;28;20439;-74
2021/05/11 02:33:41;;;;;;;3.80;3.50;;;;;;;14.23;60.41;95080.38;5033428;28;20472;-74
2021/05/11 02:36:07;;;;;;;3.87;3.50;;;;;;;14.29;59.50;95086.03;5033632;28;20456;-74
2021/05/11 02:38:34;;;;;;;3.87;3.50;;;;;;;14.30;59.38;95085.06;5033286;28;20582;-74
2021/05/11 02:41:00;;;;;;;4.37;3.97;;;;;;;14.29;59.64;95078.13;5046415;28;20919;-74
2021/05/11 02:43:36;;;;;;;3.60;3.30;;;;;;;14.30;58.34;95077.13;5073332;28;20498;-75
2021/05/11 02:46:03;;;;;;;4.27;3.70;;;;;;;14.27;58.81;95080.91;5073160;28;21017;-74
2021/05/11 02:48:29;;;;;;;4.30;4.00;;;;;;;14.20;58.37;95080.66;5073335;28;20941;-74
2021/05/11 02:50:56;;;;;;;9.90;4.53;;;;;;;14.11;59.33;95078.91;5073266;28;20459;-74
2021/05/11 02:53:22;;;;;;;5.17;3.90;;;;;;;14.08;59.50;95079.19;5073450;28;20447;-74
2021/05/11 02:55:48;;;;;;;4.60;4.27;;;;;;;13.97;59.41;95083.84;5073209;28;20432;-74
2021/05/11 02:58:15;;;;;;;4.43;3.70;;;;;;;13.86;60.10;95076.94;5083415;28;20447;-74
2021/05/11 03:00:42;;;;;;;4.23;3.77;;;;;;;13.86;60.65;95071.66;5095556;28;20487;-74
2021/05/11 03:03:09;;;;;;;4.50;4.10;;;;;;;13.79;60.65;95074.03;5095645;28;20527;-75
2021/05/11 03:05:36;;;;;;;6.70;3.50;;;;;;;13.81;60.87;95076.53;5095784;28;20450;-74
2021/05/11 03:08:02;;;;;;;7.23;4.73;;;;;;;13.81;60.99;95071.25;5096264;28;20447;-74
2021/05/11 03:10:29;;;;;;;6.13;5.53;;;;;;;13.79;61.43;95068.78;5095431;28;20857;-74
2021/05/11 03:12:55;;;;;;;4.73;4.23;;;;;;;13.77;61.38;95061.97;5095932;28;20456;-75
2021/05/11 03:15:21;;;;;;;4.23;3.93;;;;;;;13.76;60.61;95065.59;5095428;28;20447;-74
2021/05/11 03:17:48;;;;;;;5.73;4.10;;;;;;;13.61;61.19;95071.34;5095732;28;20443;-74
2021/05/11 03:20:16;;;;;;;6.70;4.30;;;;;;;13.55;63.22;95073.72;5095860;28;20486;-74
2021/05/11 03:22:42;;;;;;;5.20;4.50;;;;;;;13.50;61.71;95075.94;5095540;28;20452;-74
2021/05/11 03:25:09;;;;;;;4.30;3.93;;;;;;;13.44;61.89;95072.09;5095505;28;20440;-75
2021/05/11 03:27:36;;;;;;;4.50;4.10;;;;;;;13.39;62.25;95079.59;5095238;28;20606;-74
2021/05/11 03:30:04;;;;;;;7.93;3.70;;;;;;;13.29;62.23;95078.78;5095151;28;20452;-74
2021/05/11 03:32:30;;;;;;;7.80;4.13;;;;;;;13.25;62.38;95072.94;5095093;28;20459;-74
2021/05/11 03:34:57;;;;;;;5.73;4.70;;;;;;;13.19;63.19;95075.31;5095484;28;20448;-74
2021/05/11 03:37:24;;;;;;;7.57;5.10;;;;;;;13.18;63.55;95073.66;5094855;28;20483;-74
2021/05/11 03:39:50;;;;;;;5.33;4.83;;;;;;;13.14;63.64;95075.72;5095027;28;20483;-74
2021/05/11 03:42:19;;;;;;;10.03;4.60;;;;;;;13.14;63.32;95074.91;5095033;28;20943;-74
2021/05/11 03:44:48;;;;;;;5.20;4.13;;;;;;;13.23;63.11;95074.91;5094606;28;20927;-74
2021/05/11 03:47:16;;;;;;;7.70;4.13;;;;;;;13.45;63.64;95078.19;5095235;28;20472;-74
2021/05/11 03:49:43;;;;;;;7.70;5.70;;;;;;;13.89;60.79;95071.38;5094699;28;20481;-75
2021/05/11 03:52:10;;;;;;;9.03;4.17;;;;;;;14.40;59.31;95076.09;5094809;28;20930;-74
2021/05/11 03:54:37;;;;;;;6.17;4.10;;;;;;;14.85;58.42;95070.81;5094649;28;20439;-74
2021/05/11 03:57:04;;;;;;;9.83;4.00;;;;;;;15.14;56.57;95080.28;5094647;28;20939;-74
2021/05/11 03:59:31;;;;;;;6.30;4.47;;;;;;;15.28;56.31;95077.06;5094579;28;20567;-74
2021/05/11 04:01:57;;;;;;;4.70;4.30;;;;;;;15.34;56.09;95079.13;5094920;28;20436;-75
2021/05/11 04:04:24;;;;;;;6.00;4.60;;;;;;;15.65;55.26;95082.19;5059058;28;20448;-74
2021/05/11 04:06:51;;;;;;;4.70;4.00;;;;;;;16.27;53.93;95074.84;5094642;28;20459;-74
2021/05/11 04:09:22;;;;;;;4.40;4.10;;;;;;;16.91;52.56;95073.38;5094497;28;20454;-76
2021/05/11 04:12:07;;;;;;;4.97;3.87;;;;;;;17.54;50.25;95075.34;5092489;28;20923;-76
2021/05/11 04:17:32;;;;;;;5.40;4.37;;;;;;;18.73;47.00;95082.44;5093981;28;20765;-75
2021/05/11 04:19:59;;;;;;;7.43;4.07;;;;;;;18.15;45.90;95087.16;5093844;28;20478;-75
2021/05/11 04:22:26;;;;;;;9.60;3.80;;;;;;;17.99;47.77;95089.91;5094251;28;20450;-74
2021/05/11 04:24:54;;;;;;;4.83;4.43;;;;;;;17.90;47.50;95091.72;5094117;28;20440;-75
2021/05/11 04:27:21;;;;;;;4.73;4.33;;;;;;;17.82;46.91;95083.78;5094206;28;20497;-75
2021/05/11 04:29:50;;;;;;;5.20;4.40;;;;;;;17.06;49.11;95081.53;5094258;28;20442;-74
2021/05/11 04:32:16;;;;;;;4.50;4.10;;;;;;;16.91;51.64;95077.84;5094453;28;20470;-78
2021/05/11 04:34:43;;;;;;;5.70;4.60;;;;;;;17.72;49.67;95077.84;5094408;28;21035;-78
2021/05/11 04:37:09;;;;;;;3.90;3.40;;;;;;;19.20;48.12;95079.66;5094579;28;20450;-78
2021/05/11 04:39:35;;;;;;;10.03;4.27;;;;;;;19.33;44.23;95071.88;5094414;28;20490;-79
2021/05/11 04:42:01;;;;;;;4.50;4.10;;;;;;;19.30;43.33;95074.91;5094467;28;20430;-79
2021/05/11 04:44:30;;;;;;;4.13;3.83;;;;;;;18.85;44.52;95075.75;5074942;28;20529;-79
2021/05/11 04:47:00;;;;;;;4.87;4.47;;;;;;;19.08;44.46;95075.72;5094296;28;20451;-79
2021/05/11 04:49:27;;;;;;;8.17;4.67;;;;;;;19.54;44.17;95067.75;5094179;28;20439;-79
2021/05/11 04:51:53;;;;;;;6.13;5.10;;;;;;;20.00;43.36;95071.13;5093877;28;20449;-79
2021/05/11 04:54:20;;;;;;;16.77;4.67;;;;;;;20.37;42.45;95065.66;5058754;28;20935;-79
2021/05/11 04:56:46;;;;;;;9.03;4.40;;;;;;;20.53;42.22;95067.34;5094192;28;20450;-75
2021/05/11 04:59:13;;;;;;;5.73;5.30;;;;;;;20.59;41.41;95057.75;5057849;28;20486;-75
2021/05/11 05:01:43;;;;;;;5.33;4.83;;;;;;;20.67;41.35;95057.66;5093568;28;20526;-76
2021/05/11 05:04:11;;;;;;;4.90;4.50;;;;;;;20.67;41.71;95062.97;5094027;28;20455;-76
2021/05/11 05:06:40;;;;;;;6.40;4.97;;;;;;;20.99;41.57;95054.50;5093181;28;20534;-76
2021/05/11 05:09:07;;;;;;;8.30;4.90;;;;;;;21.36;40.61;95055.28;5093105;28;20436;-76
2021/05/11 05:11:39;;;;;;;7.00;4.33;;;;;;;21.64;39.57;95050.78;5092784;28;20443;-76
2021/05/11 05:14:06;;;;;;;6.17;4.60;;;;;;;21.02;40.20;95053.28;5093879;28;20470;-75
2021/05/11 05:16:32;;;;;;;6.10;3.93;;;;;;;21.09;40.75;95053.34;5093532;28;20447;-76
2021/05/11 05:19:00;;;;;;;6.60;4.33;;;;;;;21.17;40.32;95053.25;5093293;28;20816;-74
2021/05/11 05:21:26;;;;;;;6.33;4.10;;;;;;;21.20;40.39;95055.53;5093293;28;20453;-76
2021/05/11 05:24:01;;;;;;;7.53;5.23;;;;;;;21.13;40.62;95044.81;5093247;28;20504;-77
2021/05/11 05:26:29;;;;;;;5.17;4.67;;;;;;;21.33;40.23;95058.34;5093027;28;20971;-76
2021/05/11 05:55:58;;;;;;;21.37;4.73;;;;;;;21.54;39.49;95052.16;5121789;27;20337;-87
2021/05/11 05:58:24;;;;;;;4.93;4.50;;;;;;;21.31;40.16;95049.69;5111389;28;20450;-86
2021/05/11 06:00:53;;;;;;;10.70;4.67;;;;;;;21.43;39.84;95056.19;5112890;28;20452;-88
2021/05/11 06:03:32;;;;;;;5.57;4.20;;;;;;;21.13;41.02;95051.97;5112268;28;20462;-92
2021/05/11 06:05:59;;;;;;;7.97;4.13;;;;;;;21.23;41.27;95053.34;5112658;28;20475;-84
2021/05/11 06:08:26;;;;;;;6.93;3.37;;;;;;;21.39;40.28;95052.22;5113484;28;20447;-84
2021/05/11 06:10:56;;;;;;;5.13;4.17;;;;;;;21.25;40.52;95050.47;5111296;28;20495;-85
2021/05/11 06:13:27;;;;;;;7.33;4.37;;;;;;;21.55;39.22;95048.47;5111247;28;20930;-87
2021/05/11 06:18:38;;;;;;;7.20;4.60;;;;;;;21.61;39.44;95045.84;5080193;28;20522;-88
2021/05/11 06:21:05;;;;;;;5.30;4.30;;;;;;;21.51;39.27;95041.88;5075366;28;20825;-86
2021/05/11 06:23:31;;;;;;;6.97;3.80;;;;;;;21.77;38.97;95041.25;5111798;28;20480;-86
2021/05/11 06:25:57;;;;;;;8.63;4.77;;;;;;;21.97;39.01;95039.50;5110895;28;20450;-87
2021/05/11 06:28:25;;;;;;;9.03;4.70;;;;;;;22.32;38.86;95024.31;5103704;28;20512;-87
2021/05/11 06:30:51;;;;;;;8.27;4.50;;;;;;;22.66;37.65;95038.63;5108894;28;20448;-84
2021/05/11 06:33:18;;;;;;;11.13;4.80;;;;;;;22.97;37.57;95035.47;5106391;28;20451;-87
2021/05/11 06:35:45;;;;;;;12.70;4.97;;;;;;;22.91;36.56;95037.09;5111059;28;20450;-85
2021/05/11 06:38:11;;;;;;;5.63;4.30;;;;;;;23.05;36.84;95032.59;5110521;28;20490;-85
2021/05/11 06:40:39;;;;;;;10.33;4.60;;;;;;;23.15;36.20;95041.88;5111080;28;20567;-87
2021/05/11 06:43:06;;;;;;;4.10;3.80;;;;;;;23.37;35.38;95033.66;5111471;28;20445;-86
2021/05/11 06:48:15;;;;;;;4.97;4.00;;;;;;;23.40;36.04;95026.03;5047919;28;20425;-85
2021/05/11 06:53:26;;;;;;;8.17;4.30;;;;;;;23.70;35.59;95025.63;5048071;28;20846;-85
2021/05/11 06:55:52;;;;;;;8.33;4.00;;;;;;;23.84;34.42;95026.47;5059557;28;20576;-85
2021/05/11 06:58:18;;;;;;;3.93;3.63;;;;;;;23.52;34.68;95023.56;5054434;28;20502;-86
2021/05/11 07:00:46;;;;;;;5.40;3.70;;;;;;;23.86;34.01;95017.16;5053901;28;20441;-86
2021/05/11 07:03:12;;;;;;;7.13;3.67;;;;;;;23.74;33.83;95021.53;5055010;28;20444;-85
2021/05/11 07:05:39;;;;;;;4.07;3.67;;;;;;;23.71;33.58;95012.06;5054132;28;20457;-85
2021/05/11 07:08:12;;;;;;;4.47;3.70;;;;;;;23.58;34.35;95012.06;5005357;28;20977;-84
2021/05/11 07:10:39;;;;;;;4.53;3.87;;;;;;;23.73;35.65;95025.25;5054193;28;20452;-85
2021/05/11 07:13:12;;;;;;;5.03;4.10;;;;;;;23.61;35.19;95021.53;5005541;28;20529;-86
2021/05/11 07:15:40;;;;;;;5.00;4.00;;;;;;;23.84;35.37;95011.19;5038077;28;20451;-85
2021/05/11 07:18:13;;;;;;;3.77;3.40;;;;;;;23.63;35.51;95014.09;5054642;28;20479;-84
2021/05/11 07:20:40;;;;;;;6.17;3.80;;;;;;;23.76;35.54;95012.25;5054724;28;20452;-86
2021/05/11 07:23:07;;;;;;;4.20;3.50;;;;;;;24.05;35.62;95007.44;5021142;28;20456;-85
2021/05/11 07:25:38;;;;;;;6.80;4.20;;;;;;;24.34;35.25;95009.66;5077825;28;20486;-85
2021/05/11 07:30:45;;;;;;;7.33;4.50;;;;;;;24.02;35.48;94995.28;5053767;28;20445;-86
2021/05/11 07:33:13;;;;;;;4.73;3.80;;;;;;;24.29;34.83;94987.19;5004748;28;20519;-85
2021/05/11 07:35:40;;;;;;;5.37;3.90;;;;;;;24.17;34.11;94986.97;5053588;28;20465;-86
2021/05/11 07:38:09;;;;;;;9.83;3.80;;;;;;;24.01;34.57;94980.25;5053787;28;20956;-86
2021/05/11 07:40:35;;;;;;;5.10;3.00;;;;;;;24.27;34.14;94983.84;5054313;28;20804;-85
2021/05/11 07:43:04;;;;;;;6.97;3.67;;;;;;;24.45;34.58;94981.34;5054744;28;20442;-87
2021/05/11 07:45:42;;;;;;;15.30;4.60;;;;;;;24.48;33.88;94985.44;5054868;28;20489;-85
2021/05/11 07:48:30;;;;;;;11.03;3.37;;;;;;;24.24;34.62;94982.41;5020659;28;20434;-85
2021/05/11 08:02:02;;;;;;;11.33;4.00;;;;;;;24.64;35.54;94963.50;4994914;28;20466;-85
2021/05/11 08:04:34;;;;;;;3.53;3.23;;;;;;;24.45;35.31;94964.41;4994719;28;20589;-85
2021/05/11 08:09:55;;;;;;;8.13;3.10;;;;;;;23.91;35.51;94963.75;5014710;28;20469;-85
2021/05/11 08:15:15;;;;;;;7.33;3.40;;;;;;;24.30;37.31;94951.28;4972171;28;20964;-85
2021/05/11 08:17:44;;;;;;;4.03;3.00;;;;;;;24.26;35.82;94950.84;4997115;28;20444;-86
2021/05/11 08:20:31;;;;;;;7.70;3.50;;;;;;;24.35;35.87;94948.78;5013685;28;21150;-85
2021/05/11 08:28:41;;;;;;;7.73;4.10;;;;;;;24.02;36.65;94955.06;4935656;29;20442;-84
2021/05/11 08:31:08;;;;;;;9.93;3.67;;;;;;;23.93;36.04;94945.59;4936237;29;20450;-86
2021/05/11 08:33:34;;;;;;;6.47;3.20;;;;;;;24.28;36.54;94947.97;4936588;29;20446;-86
2021/05/11 08:36:01;;;;;;;7.57;3.40;;;;;;;24.50;37.04;94941.25;4963177;28;20492;-86
2021/05/11 08:38:28;;;;;;;7.50;3.43;;;;;;;24.81;35.87;94931.59;4993239;28;20449;-87
2021/05/11 08:40:55;;;;;;;11.93;3.50;;;;;;;24.82;35.67;94935.91;4992817;28;20454;-84
2021/05/11 08:43:27;;;;;;;8.63;2.90;;;;;;;24.77;34.88;94939.25;4992822;28;20879;-85
2021/05/11 08:45:54;;;;;;;11.53;3.07;;;;;;;24.71;34.79;94932.91;4960622;28;20485;-87
2021/05/11 08:48:21;;;;;;;3.10;2.83;;;;;;;24.81;34.39;94931.59;4993331;28;20451;-86
2021/05/11 08:50:50;;;;;;;6.47;2.80;;;;;;;24.97;34.85;94936.44;4945558;28;20789;-87
2021/05/11 08:53:34;;;;;;;4.80;2.97;;;;;;;25.18;35.28;94935.28;4993991;28;20443;-86
2021/05/11 09:04:42;;;;;;;3.53;3.23;;;;;;;24.79;34.88;94912.19;4993376;28;20819;-85
2021/05/11 09:07:44;;;;;;;3.73;2.50;;;;;;;24.78;33.51;94911.38;4993173;28;20445;-86
2021/05/11 09:27:21;;;;;;;3.53;2.60;;;;;;;25.05;34.97;94892.41;4877842;29;20972;-86
2021/05/11 09:30:06;;;;;;;3.60;3.30;;;;;;;25.15;34.91;94890.03;4877865;29;20455;-86
2021/05/11 09:32:47;;;;;;;3.63;3.33;;;;;;;25.24;32.78;94881.50;4831521;29;20981;-86
2021/05/11 09:54:47;;;;;;;3.30;2.80;;;;;;;24.51;32.30;94867.78;4868659;29;20496;-86
2021/05/11 09:57:34;;;;;;;6.27;2.63;;;;;;;24.26;33.04;94870.38;4897674;29;20458;-87
2021/05/11 10:48:24;;;;;;;3.70;1.93;;;;;;;25.31;28.89;94820.47;4937130;29;20438;-85
2021/05/11 10:50:53;;;;;;;3.73;1.90;;;;;;;25.47;29.36;94812.88;4936954;29;20476;-87
2021/05/11 10:53:39;;;;;;;2.07;1.80;;;;;;;25.56;27.79;94811.53;4937159;29;20443;-87
2021/05/11 10:57:00;;;;;;;4.83;1.77;;;;;;;25.70;28.61;94802.28;4936919;29;20603;-85
2021/05/11 11:05:12;;;;;;;1.60;1.50;;;;;;;25.88;27.71;94799.56;4936534;29;20521;-85
2021/05/11 11:07:42;;;;;;;5.73;1.80;;;;;;;25.92;28.05;94792.69;4936581;29;21006;-85
2021/05/11 11:10:10;;;;;;;2.20;2.00;;;;;;;25.77;27.00;94803.03;4938305;28;20458;-86
2021/05/11 11:12:39;;;;;;;3.83;1.60;;;;;;;25.69;27.82;94795.25;5013779;28;20567;-86
2021/05/11 11:15:16;;;;;;;6.60;2.00;;;;;;;25.64;27.09;94795.09;5059695;28;20551;-86
2021/05/11 11:17:44;;;;;;;5.63;1.77;;;;;;;25.62;28.04;94783.75;5076675;28;20530;-87
2021/05/11 11:20:13;;;;;;;2.40;1.93;;;;;;;25.75;28.46;94789.00;5076160;28;20463;-86
2021/05/11 11:25:26;;;;;;;4.00;2.00;;;;;;;25.85;28.97;94778.53;5076548;28;20483;-86
2021/05/11 11:27:53;;;;;;;2.13;2.03;;;;;;;26.03;29.09;94782.22;5075620;28;20924;-84
2021/05/11 11:30:20;;;;;;;2.53;1.90;;;;;;;26.15;30.40;94769.63;5074732;28;20459;-86
2021/05/11 11:32:47;;;;;;;2.00;1.90;;;;;;;26.11;29.12;94763.88;5076927;28;20472;-87
2021/05/11 11:35:13;;;;;;;7.37;2.00;;;;;;;26.05;30.16;94775.56;5077209;28;20460;-86
2021/05/11 11:37:42;;;;;;;5.20;2.00;;;;;;;26.06;31.15;94754.88;5077406;28;20444;-85
2021/05/11 11:40:11;;;;;;;2.20;2.00;;;;;;;26.16;29.49;94763.19;5076405;28;20973;-81
2021/05/11 11:42:39;;;;;;;2.20;2.00;;;;;;;26.11;30.89;94771.97;5041230;28;20443;-86
2021/05/11 11:45:09;;;;;;;1.77;1.67;;;;;;;26.04;30.64;94754.28;5076091;28;20491;-88
2021/05/11 11:47:49;;;;;;;4.90;1.93;;;;;;;26.01;30.60;94760.09;5041065;28;20494;-86
2021/05/11 11:50:16;;;;;;;3.87;2.10;;;;;;;25.92;29.91;94762.28;5075904;28;20444;-86
2021/05/11 11:52:49;;;;;;;5.43;2.10;;;;;;;25.99;29.73;94751.44;5075780;28;20543;-86
2021/05/11 11:58:05;;;;;;;1.97;1.87;;;;;;;26.10;30.22;94751.50;5053328;28;20517;-86
2021/05/11 12:00:33;;;;;;;3.73;2.20;;;;;;;26.14;31.07;94743.78;5053172;28;20463;-86
2021/05/11 12:03:01;;;;;;;2.47;2.13;;;;;;;26.27;31.12;94743.56;5053094;28;20458;-87
2021/05/11 12:05:31;;;;;;;3.70;1.90;;;;;;;26.09;30.29;94751.72;5052858;28;20481;-84
2021/05/11 12:08:04;;;;;;;4.13;1.80;;;;;;;26.02;30.67;94741.06;5054612;28;20442;-86
2021/05/11 12:10:32;;;;;;;2.60;2.40;;;;;;;26.15;30.70;94734.66;5054804;28;20540;-86
2021/05/11 12:13:03;;;;;;;3.73;2.40;;;;;;;26.23;30.48;94731.63;5054948;28;20455;-85
2021/05/11 12:15:29;;;;;;;3.17;2.07;;;;;;;26.43;30.05;94732.16;5054263;28;20909;-87
2021/05/11 12:18:00;;;;;;;2.27;2.07;;;;;;;26.44;29.64;94723.06;5053928;28;20449;-86
2021/05/11 12:20:26;;;;;;;1.97;1.87;;;;;;;26.20;29.24;94729.41;5052944;28;20449;-88
2021/05/11 12:23:07;;;;;;;2.50;2.30;;;;;;;26.13;30.57;94732.19;5052472;28;20545;-84
2021/05/11 12:25:34;;;;;;;2.13;2.00;;;;;;;25.97;30.43;94724.78;5052628;28;20473;-87
2021/05/11 12:28:01;;;;;;;2.13;2.03;;;;;;;25.93;31.08;94719.03;5052758;28;20533;-86
2021/05/11 12:30:39;;;;;;;6.73;3.17;;;;;;;25.94;32.01;94712.63;5052623;28;20492;-85
2021/05/11 12:33:09;;;;;;;6.90;2.70;;;;;;;26.05;32.04;94712.91;5052889;28;20446;-86
2021/05/11 12:35:36;;;;;;;2.33;2.13;;;;;;;25.82;31.36;94714.44;5109693;28;20453;-86
2021/05/11 12:38:15;;;;;;;2.00;1.90;;;;;;;25.91;31.68;94706.88;5062828;28;20453;-85
2021/05/11 12:40:47;;;;;;;2.00;1.90;;;;;;;25.64;31.30;94712.59;5115315;28;20457;-84
2021/05/11 12:43:14;;;;;;;3.30;1.90;;;;;;;25.59;32.00;94692.81;5114994;28;20470;-86
2021/05/11 12:45:51;;;;;;;2.70;1.70;;;;;;;25.70;32.25;94704.69;5114958;28;20493;-86
2021/05/11 12:48:17;;;;;;;4.20;2.20;;;;;;;25.68;31.78;94704.91;5078843;28;20438;-86
2021/05/11 12:50:44;;;;;;;6.43;2.10;;;;;;;25.55;31.67;94707.75;5115903;28;20449;-86
2021/05/11 12:53:31;;;;;;;7.20;2.40;;;;;;;25.48;31.72;94696.28;5115543;28;20499;-85
2021/05/11 12:56:18;;;;;;;2.00;1.80;;;;;;;25.53;30.38;94696.44;5116252;28;20450;-86
2021/05/11 12:59:01;;;;;;;1.90;1.80;;;;;;;25.45;32.19;94696.75;5115609;28;20454;-87
2021/05/11 13:01:34;;;;;;;2.00;1.80;;;;;;;25.37;31.79;94710.47;5114497;28;20438;-86
2021/05/11 13:04:25;;;;;;;2.57;2.17;;;;;;;25.14;30.98;94690.47;5114950;28;20492;-85
2021/05/11 13:26:26;;;;;;;5.93;2.27;;;;;;;25.35;30.28;94680.31;4994145;28;20443;-84
2021/05/11 13:28:55;;;;;;;2.30;2.10;;;;;;;25.33;30.00;94684.06;4993793;28;20450;-87
2021/05/11 13:31:27;;;;;;;2.57;2.20;;;;;;;25.32;30.34;94692.34;4993324;28;20454;-85
2021/05/11 13:33:59;;;;;;;3.30;3.00;;;;;;;25.33;29.70;94685.94;4993486;28;20448;-85
2021/05/11 13:36:25;;;;;;;7.87;2.13;;;;;;;25.25;28.97;94692.44;4992968;28;20489;-88
2021/05/11 13:38:52;;;;;;;2.30;2.20;;;;;;;25.23;29.13;94691.03;4992832;28;20967;-87
2021/05/11 13:41:18;;;;;;;2.00;1.90;;;;;;;25.12;29.25;94679.16;4944286;28;20451;-87
2021/05/11 13:43:45;;;;;;;5.03;1.87;;;;;;;25.29;29.90;94677.50;4992948;28;20507;-86
2021/05/11 13:46:12;;;;;;;4.70;2.30;;;;;;;25.35;29.22;94674.97;4992389;28;20449;-86
2021/05/11 13:48:39;;;;;;;3.30;2.03;;;;;;;25.33;29.42;94667.94;4943878;28;20827;-83
2021/05/11 13:51:12;;;;;;;1.97;1.87;;;;;;;25.45;29.29;94664.50;4992053;28;20456;-85
2021/05/11 13:53:40;;;;;;;2.40;2.10;;;;;;;25.39;29.28;94668.06;5000408;28;20987;-85
2021/05/11 13:56:23;;;;;;;3.67;2.23;;;;;;;25.28;29.85;94670.50;5110676;28;20515;-84
2021/05/11 14:01:59;;;;;;;3.43;2.03;;;;;;;25.34;29.46;94663.38;5114517;28;20554;-85
2021/05/11 14:04:25;;;;;;;2.33;2.13;;;;;;;25.41;30.68;94665.97;5061418;28;20574;-85
2021/05/11 14:06:52;;;;;;;2.40;2.20;;;;;;;25.37;29.00;94659.44;5116741;28;20453;-86
2021/05/11 14:09:18;;;;;;;3.80;2.10;;;;;;;25.23;28.59;94656.09;5048628;28;20917;-85
2021/05/11 14:11:45;;;;;;;6.80;2.30;;;;;;;25.29;29.29;94650.66;5118139;28;20442;-89
2021/05/11 14:14:13;;;;;;;2.30;2.20;;;;;;;25.42;28.82;94649.63;5117778;28;20459;-87
2021/05/11 14:16:42;;;;;;;2.07;1.97;;;;;;;25.47;28.49;94659.72;5118262;28;20447;-86
2021/05/11 14:19:08;;;;;;;1.93;1.83;;;;;;;25.22;28.33;94654.47;5118589;28;20470;-87
2021/05/11 14:21:35;;;;;;;3.73;1.90;;;;;;;25.14;28.85;94638.63;5118370;28;20449;-86
2021/05/11 14:24:02;;;;;;;2.83;1.93;;;;;;;25.23;29.80;94651.56;5117913;28;20446;-87
2021/05/11 14:26:29;;;;;;;2.20;1.70;;;;;;;25.29;29.09;94656.00;5118223;28;20947;-85
2021/05/11 14:28:56;;;;;;;2.50;1.87;;;;;;;25.27;27.76;94646.53;5118770;28;20437;-85
2021/05/11 14:31:24;;;;;;;1.77;1.67;;;;;;;25.29;27.90;94645.28;5118739;28;20528;-87
2021/05/11 14:33:51;;;;;;;1.83;1.73;;;;;;;25.35;27.90;94634.66;5118888;28;20457;-88
2021/05/11 14:36:17;;;;;;;4.93;2.10;;;;;;;25.47;27.69;94635.53;5118801;28;20444;-87
2021/05/11 14:38:44;;;;;;;7.80;2.10;;;;;;;25.39;28.69;94638.53;5117707;28;20444;-86
2021/05/11 14:41:10;;;;;;;7.50;2.20;;;;;;;25.34;28.65;94641.91;5117377;28;20452;-86
2021/05/11 14:43:39;;;;;;;3.90;2.00;;;;;;;25.40;29.01;94634.78;5117620;28;20481;-84
2021/05/11 14:46:07;;;;;;;5.90;1.90;;;;;;;25.33;29.07;94632.19;5117596;28;20483;-85
2021/05/11 14:48:35;;;;;;;2.40;2.00;;;;;;;25.29;28.74;94631.84;5118035;28;20451;-85
2021/05/11 14:51:02;;;;;;;3.43;2.20;;;;;;;25.30;29.18;94630.78;5117363;28;20535;-87
2021/05/11 14:53:30;;;;;;;3.50;2.30;;;;;;;25.36;29.20;94622.88;5117212;28;20445;-86
2021/05/11 14:55:57;;;;;;;5.13;2.17;;;;;;;25.35;28.56;94624.72;5117154;28;20488;-87
2021/05/11 14:58:23;;;;;;;2.00;1.80;;;;;;;25.32;28.32;94622.50;5116826;28;20947;-87
2021/05/11 15:00:50;;;;;;;3.20;1.80;;;;;;;25.26;29.26;94624.25;5116931;28;20448;-87
2021/05/11 15:03:16;;;;;;;4.93;2.00;;;;;;;25.15;28.74;94621.47;5080849;28;20442;-86
2021/05/11 15:05:43;;;;;;;2.03;1.90;;;;;;;24.97;29.42;94620.44;5116994;28;20825;-85
2021/05/11 15:08:10;;;;;;;4.10;1.90;;;;;;;24.77;29.80;94617.16;5116750;28;20438;-88
2021/05/11 15:10:36;;;;;;;2.70;2.50;;;;;;;24.76;29.84;94630.81;5116674;28;20495;-85
2021/05/11 15:13:03;;;;;;;2.10;1.87;;;;;;;24.75;28.99;94629.19;5116705;28;20484;-87
2021/05/11 15:15:31;;;;;;;5.50;2.60;;;;;;;24.67;30.28;94616.88;5116888;28;20437;-86
2021/05/11 15:18:00;;;;;;;3.10;2.30;;;;;;;24.68;29.71;94611.28;5116133;28;20485;-87
2021/05/11 15:20:26;;;;;;;2.67;2.47;;;;;;;24.64;30.10;94615.47;5116715;28;20459;-85
2021/05/11 15:22:53;;;;;;;2.40;2.20;;;;;;;24.43;30.46;94609.72;5116479;28;20453;-84
2021/05/11 15:25:21;;;;;;;5.17;2.60;;;;;;;24.49;30.54;94614.19;5116637;28;20489;-85
2021/05/11 15:27:47;;;;;;;5.00;2.40;;;;;;;24.55;30.55;94614.09;5116483;28;20449;-86
2021/05/11 15:30:15;;;;;;;5.50;3.10;;;;;;;24.56;31.18;94604.19;5116523;28;20453;-87